Time;durP1;ratioP1;P1;durP2;ratioP2;P2;SDS_P1;SDS_P2;PMS_P1;PMS_P2;Temp;Humidity;BMP_temperature;BMP_pressure;BME280_temperature;BME280_humidity;BME280_pressure;Samples;Min_cycle;Max_cycle;Signal;HPM_P1;HPM_P2
2023/04/08 00:00:56;;;;;;;35.50;22.00;;;;;;;3.85;88.53;98899.69;217836;1296;24278;-79
2023/04/08 00:06:01;;;;;;;37.60;23.80;;;;;;;3.86;88.61;98899.45;217982;1299;22622;-79
2023/04/08 00:11:04;;;;;;;43.20;26.00;;;;;;;3.85;88.56;98903.17;218248;1299;23000;-80
2023/04/08 00:16:06;;;;;;;54.20;31.70;;;;;;;3.83;88.64;98906.17;217963;1299;22543;-79
2023/04/08 00:21:09;;;;;;;53.90;30.70;;;;;;;3.79;88.38;98910.60;218131;1293;22556;-79
2023/04/08 00:26:11;;;;;;;49.80;28.90;;;;;;;3.69;88.34;98920.52;217928;1299;22919;-80
2023/04/08 00:31:15;;;;;;;44.00;25.10;;;;;;;3.61;88.14;98918.39;218110;1293;25402;-80
2023/04/08 00:36:18;;;;;;;49.00;29.30;;;;;;;3.50;88.28;98926.30;218274;1282;22536;-79
2023/04/08 00:41:20;;;;;;;45.00;28.00;;;;;;;3.41;88.38;98924.52;218024;1298;22546;-79
2023/04/08 00:46:23;;;;;;;41.50;26.80;;;;;;;3.39;88.59;98931.85;217926;1299;22573;-80
2023/04/08 00:51:37;;;;;;;;;;;;;;;;;;;;;
2023/04/08 00:56:42;;;;;;;37.80;22.50;;;;;;;3.29;88.26;98949.80;217996;1301;22575;-79
2023/04/08 01:02:05;;;;;;;33.00;21.60;;;;;;;3.24;88.46;98950.66;218298;1298;22916;-80
2023/04/08 01:07:46;;;;;;;32.10;20.20;;;;;;;3.25;88.66;98958.08;218247;1294;22570;-79
2023/04/08 01:12:55;;;;;;;27.80;19.20;;;;;;;3.25;88.41;98954.42;217792;1301;25443;-80
2023/04/08 01:17:59;;;;;;;31.90;21.60;;;;;;;3.25;88.42;98955.99;218167;1299;22552;-78
2023/04/08 01:23:17;;;;;;;29.30;19.90;;;;;;;3.24;88.43;98955.85;217885;1299;22540;-80
2023/04/08 01:28:22;;;;;;;30.30;20.70;;;;;;;3.24;88.33;98956.38;218186;1290;22588;-79
2023/04/08 01:33:27;;;;;;;30.50;21.10;;;;;;;3.25;88.40;98955.80;218167;1299;22553;-79
2023/04/08 01:38:32;;;;;;;28.00;19.10;;;;;;;3.24;88.33;98961.31;218250;1298;23290;-79
2023/04/08 01:43:38;;;;;;;24.90;17.70;;;;;;;3.22;88.28;98960.90;218223;1299;22553;-78
2023/04/08 01:48:41;;;;;;;19.80;15.10;;;;;;;3.22;88.26;98965.85;218168;1299;22668;-80
2023/04/08 01:53:44;;;;;;;15.70;11.30;;;;;;;3.21;88.08;98962.02;217858;1300;24361;-78
2023/04/08 01:58:53;;;;;;;19.50;14.70;;;;;;;3.21;87.92;98966.95;218105;1280;25295;-79
2023/04/08 02:03:58;;;;;;;23.30;16.20;;;;;;;3.17;87.77;98967.23;217567;1302;22542;-81
2023/04/08 02:09:03;;;;;;;24.80;18.10;;;;;;;3.17;87.88;98967.21;217457;1301;22674;-79
2023/04/08 02:14:05;;;;;;;27.50;19.90;;;;;;;3.18;87.86;98973.09;217659;1299;24285;-79
2023/04/08 02:19:17;;;;;;;21.20;16.50;;;;;;;3.18;87.92;98971.36;217891;1290;22686;-79
2023/04/08 02:24:21;;;;;;;21.40;16.00;;;;;;;3.19;88.09;98980.11;218130;1298;22551;-80
2023/04/08 02:29:25;;;;;;;21.80;15.80;;;;;;;3.20;87.77;98979.91;217951;1290;24286;-79
2023/04/08 02:34:29;;;;;;;20.90;15.80;;;;;;;3.18;87.55;98982.88;217900;1300;23755;-78
2023/04/08 02:39:32;;;;;;;21.00;16.40;;;;;;;3.15;87.45;98979.96;217789;1299;22671;-79
2023/04/08 02:44:35;;;;;;;20.90;16.50;;;;;;;3.13;87.41;98981.73;217830;1301;22548;-79
2023/04/08 02:49:37;;;;;;;23.10;17.10;;;;;;;3.10;87.21;98986.04;217965;1301;22789;-79
2023/04/08 02:54:40;;;;;;;23.60;17.10;;;;;;;3.06;87.36;98987.19;217802;1301;22576;-79
2023/04/08 02:59:43;;;;;;;26.70;18.50;;;;;;;3.03;87.04;98987.52;218236;1299;24449;-79
2023/04/08 03:04:48;;;;;;;26.60;19.80;;;;;;;3.00;87.15;98993.17;218072;1301;22562;-78
2023/04/08 03:09:53;;;;;;;29.70;21.20;;;;;;;2.97;87.15;98997.08;218200;1285;22552;-79
2023/04/08 03:14:56;;;;;;;25.70;19.30;;;;;;;2.92;87.06;98999.11;217786;1299;22548;-79
2023/04/08 03:20:00;;;;;;;27.40;20.30;;;;;;;2.88;86.92;99000.84;217955;1301;22676;-79
2023/04/08 03:25:03;;;;;;;30.10;21.50;;;;;;;2.84;87.00;99002.86;218101;1299;23080;-79
2023/04/08 03:30:07;;;;;;;28.60;22.00;;;;;;;2.85;87.09;99005.39;218127;1300;24402;-79
2023/04/08 03:35:10;;;;;;;26.10;19.70;;;;;;;2.86;87.18;99002.60;218121;1299;24312;-80
2023/04/08 03:40:13;;;;;;;25.70;19.40;;;;;;;2.79;86.76;99008.88;217934;1301;22575;-79
2023/04/08 03:45:15;;;;;;;24.50;18.70;;;;;;;2.72;86.84;99013.19;218200;1301;22572;-79
2023/04/08 03:50:25;;;;;;;29.20;23.20;;;;;;;2.68;87.03;99017.84;218192;1301;22547;-78
2023/04/08 03:55:28;;;;;;;29.40;21.70;;;;;;;2.66;86.90;99027.30;217874;1294;24285;-78
2023/04/08 04:00:32;;;;;;;29.20;22.80;;;;;;;2.63;86.89;99031.34;217783;1293;22543;-78
2023/04/08 04:05:35;;;;;;;30.40;21.30;;;;;;;2.58;86.92;99036.29;218117;1299;24360;-79
2023/04/08 04:10:39;;;;;;;26.50;19.60;;;;;;;2.53;86.81;99038.29;217738;1288;22553;-79
2023/04/08 04:15:42;;;;;;;25.60;19.80;;;;;;;2.52;86.98;99048.80;218127;1299;22574;-80
2023/04/08 04:20:45;;;;;;;24.90;18.60;;;;;;;2.49;86.77;99052.73;217903;1299;22556;-78
2023/04/08 04:25:47;;;;;;;24.40;17.90;;;;;;;2.45;86.64;99060.98;217832;1301;22609;-79
2023/04/08 04:30:50;;;;;;;25.40;18.60;;;;;;;2.43;86.72;99068.84;218107;1299;22553;-79
2023/04/08 04:35:53;;;;;;;23.70;17.00;;;;;;;2.40;86.69;99071.36;217982;1301;22605;-78
2023/04/08 04:40:57;;;;;;;24.90;18.60;;;;;;;2.41;86.63;99078.40;217842;1301;25083;-79
2023/04/08 04:46:01;;;;;;;23.80;17.50;;;;;;;2.40;86.53;99081.41;218148;1298;23287;-79
2023/04/08 04:51:03;;;;;;;25.20;18.90;;;;;;;2.42;86.46;99081.33;218182;1286;22666;-78
2023/04/08 04:56:06;;;;;;;25.50;18.20;;;;;;;2.45;86.29;99088.00;217749;1299;22581;-78
2023/04/08 05:01:09;;;;;;;24.10;16.60;;;;;;;2.47;86.39;99087.96;217769;1301;25399;-79
2023/04/08 05:06:12;;;;;;;20.10;15.50;;;;;;;2.52;86.36;99095.76;218071;1292;25297;-79
2023/04/08 05:11:17;;;;;;;22.80;16.70;;;;;;;2.53;86.25;99097.26;217862;1301;24161;-80
2023/04/08 05:16:19;;;;;;;24.30;17.50;;;;;;;2.54;86.15;99099.38;217612;1300;22799;-79
2023/04/08 05:21:22;;;;;;;21.40;15.90;;;;;;;2.59;86.18;99107.02;217660;1296;23198;-79
2023/04/08 05:26:26;;;;;;;24.30;18.50;;;;;;;2.60;85.91;99107.62;218036;1299;26419;-79
2023/04/08 05:31:29;;;;;;;26.00;18.80;;;;;;;2.58;86.04;99117.33;217876;1299;25449;-79
2023/04/08 05:36:32;;;;;;;23.60;17.20;;;;;;;2.61;86.31;99127.02;218015;1301;22560;-79
2023/04/08 05:41:34;;;;;;;24.50;18.60;;;;;;;2.66;86.30;99123.81;218132;1299;22659;-77
2023/04/08 05:46:37;;;;;;;21.60;16.40;;;;;;;2.67;85.86;99130.98;218109;1278;25416;-77
2023/04/08 05:51:40;;;;;;;21.80;15.20;;;;;;;2.73;85.92;99134.17;217749;1299;23201;-78
2023/04/08 05:56:45;;;;;;;22.40;17.00;;;;;;;2.86;86.10;99142.63;217792;1301;22571;-79
2023/04/08 06:01:47;;;;;;;25.30;19.00;;;;;;;3.04;86.00;99145.89;218005;1299;22549;-79
2023/04/08 06:06:50;;;;;;;20.60;15.30;;;;;;;3.16;85.74;99157.69;218048;1295;22549;-78
2023/04/08 06:11:52;;;;;;;22.50;16.10;;;;;;;3.28;85.61;99159.86;218003;1301;24325;-78
2023/04/08 06:16:56;;;;;;;20.50;14.70;;;;;;;3.38;85.40;99165.45;218109;1301;22546;-77
2023/04/08 06:21:58;;;;;;;21.50;16.40;;;;;;;3.40;85.25;99166.13;218229;1299;24128;-78
2023/04/08 06:27:01;;;;;;;22.70;16.50;;;;;;;3.39;84.98;99169.88;218171;1301;22915;-77
2023/04/08 06:32:05;;;;;;;22.90;16.70;;;;;;;3.37;84.95;99177.89;217964;1283;23809;-76
2023/04/08 06:37:08;;;;;;;23.80;17.90;;;;;;;3.34;84.78;99176.61;218156;1286;25446;-78
2023/04/08 06:42:10;;;;;;;19.50;14.70;;;;;;;3.37;84.89;99178.03;218055;1299;24306;-78
2023/04/08 06:47:20;;;;;;;22.00;15.90;;;;;;;3.54;85.22;99190.34;218316;1294;24233;-76
2023/04/08 06:52:23;;;;;;;19.90;14.30;;;;;;;3.76;84.90;99193.42;218534;1293;22537;-78
2023/04/08 06:57:28;;;;;;;18.50;13.80;;;;;;;4.04;84.92;99192.85;218187;1283;138411;-78
2023/04/08 07:02:31;;;;;;;17.70;14.70;;;;;;;4.31;84.62;99193.72;218081;1298;139695;-77
2023/04/08 07:07:35;;;;;;;20.00;14.90;;;;;;;4.47;84.16;99193.29;217735;1293;138873;-78
2023/04/08 07:12:38;;;;;;;19.10;13.50;;;;;;;4.52;83.71;99200.53;217642;1295;139303;-79
2023/04/08 07:17:41;;;;;;;17.80;13.60;;;;;;;4.52;83.40;99207.30;217779;1280;138870;-78
2023/04/08 07:22:44;;;;;;;18.50;13.80;;;;;;;4.71;83.62;99212.11;218307;1296;22695;-78
2023/04/08 07:27:46;;;;;;;18.70;15.10;;;;;;;4.95;83.54;99208.95;217912;1297;138498;-78
2023/04/08 07:32:49;;;;;;;16.00;13.40;;;;;;;5.05;82.89;99216.08;217495;1302;138845;-78
2023/04/08 07:37:52;;;;;;;18.40;14.80;;;;;;;5.10;82.87;99221.00;217719;1287;138983;-77
2023/04/08 07:42:55;;;;;;;16.50;13.20;;;;;;;5.15;82.95;99223.67;217999;1301;138833;-78
2023/04/08 07:47:57;;;;;;;18.10;14.70;;;;;;;5.28;82.82;99227.18;217734;1301;138793;-78
2023/04/08 07:53:00;;;;;;;19.10;13.80;;;;;;;5.50;82.75;99238.40;217712;1299;22549;-78
2023/04/08 07:58:02;;;;;;;16.70;12.70;;;;;;;5.73;82.19;99238.63;217788;1302;138509;-77
2023/04/08 08:03:06;;;;;;;15.00;11.80;;;;;;;5.91;81.93;99241.84;217858;1282;138706;-78
2023/04/08 08:08:12;;;;;;;15.70;11.30;;;;;;;5.96;81.34;99241.17;218306;1301;138914;-78
2023/04/08 08:13:24;;;;;;;11.70;9.80;;;;;;;6.04;80.89;99243.55;218297;1291;138869;-78
2023/04/08 08:18:38;;;;;;;;;;;;;;;;;;;;;
2023/04/08 08:23:41;;;;;;;15.00;11.70;;;;;;;6.44;80.15;99246.64;217864;1298;139007;-77
2023/04/08 08:28:44;;;;;;;11.20;9.60;;;;;;;6.69;80.29;99242.24;218018;1278;22563;-78
2023/04/08 08:33:46;;;;;;;11.30;9.10;;;;;;;6.87;79.34;99239.91;217735;1280;138320;-78
2023/04/08 08:38:53;;;;;;;11.70;9.90;;;;;;;6.98;78.58;99243.54;218115;1280;138491;-77
2023/04/08 08:43:56;;;;;;;12.50;9.70;;;;;;;7.17;78.89;99245.80;218327;1282;138792;-78
2023/04/08 08:49:12;;;;;;;9.60;7.60;;;;;;;7.35;77.90;99253.45;218125;1286;138647;-78
2023/04/08 08:54:14;;;;;;;9.10;7.80;;;;;;;7.45;77.03;99253.09;218280;1279;138664;-78
2023/04/08 08:59:17;;;;;;;13.70;8.90;;;;;;;7.55;76.92;99258.77;218090;1286;25368;-77
2023/04/08 09:04:38;;;;;;;;;;;;;;;;;;;;;
2023/04/08 09:09:50;;;;;;;11.50;9.20;;;;;;;7.74;77.00;99259.52;218419;1280;124556;-77
2023/04/08 09:15:09;;;;;;;11.20;8.90;;;;;;;7.95;76.28;99270.86;218349;1278;138496;-79
2023/04/08 09:20:14;;;;;;;11.20;8.80;;;;;;;8.08;75.67;99277.56;218049;1286;138742;-78
2023/04/08 09:25:28;;;;;;;11.40;9.80;;;;;;;8.22;75.46;99281.63;218360;1279;138681;-79
2023/04/08 09:30:37;;;;;;;11.20;9.00;;;;;;;8.49;76.02;99284.34;217899;1289;138620;-78
2023/04/08 09:35:43;;;;;;;10.80;9.00;;;;;;;8.62;74.62;99288.20;217791;1286;139114;-79
2023/04/08 09:41:40;;;;;;;;;;;;;;;;;;;;;
2023/04/08 09:47:43;;;;;;;11.20;9.00;;;;;;;8.72;73.68;99288.42;218584;1279;22693;-80
2023/04/08 09:53:33;;;;;;;12.00;9.70;;;;;;;8.81;73.73;99287.16;218185;1283;22591;-83
2023/04/08 10:38:19;;;;;;;13.90;11.40;;;;;;;10.81;70.31;99291.08;210986;1283;139136;-80
2023/04/08 10:43:23;;;;;;;15.30;12.10;;;;;;;10.75;69.26;99290.85;222407;1282;139365;-82
2023/04/08 10:48:25;;;;;;;12.70;10.60;;;;;;;10.81;69.66;99293.18;221432;1282;138903;-81
2023/04/08 10:53:29;;;;;;;13.20;11.40;;;;;;;10.85;68.76;99283.87;222171;1279;22563;-82
2023/04/08 10:58:33;;;;;;;10.60;9.20;;;;;;;10.75;68.46;99286.29;221355;1280;138926;-83
2023/04/08 11:03:35;;;;;;;11.20;9.80;;;;;;;10.84;68.85;99286.63;221783;1287;22563;-83
2023/04/08 11:08:39;;;;;;;10.60;9.50;;;;;;;11.15;68.16;99283.02;222353;1301;22555;-83
2023/04/08 11:13:44;;;;;;;10.70;9.60;;;;;;;11.45;68.61;99280.51;222150;1301;22585;-85
2023/04/08 11:18:55;;;;;;;9.60;8.60;;;;;;;11.74;68.32;99288.23;222152;1301;22557;-84
2023/04/08 11:23:58;;;;;;;9.70;8.80;;;;;;;11.73;66.76;99292.73;222153;1300;22567;-83
2023/04/08 11:29:01;;;;;;;10.90;9.80;;;;;;;11.66;66.75;99287.90;222154;1301;24310;-82
2023/04/08 11:34:03;;;;;;;10.10;9.20;;;;;;;11.80;66.81;99287.31;222323;1301;22555;-82
2023/04/08 11:39:07;;;;;;;10.00;8.50;;;;;;;11.88;66.34;99285.66;222175;1301;22566;-83
2023/04/08 11:44:10;;;;;;;8.30;7.50;;;;;;;12.06;66.17;99283.09;222315;1301;22548;-84
2023/04/08 11:49:12;;;;;;;9.10;8.20;;;;;;;12.12;65.17;99282.79;222168;1300;22564;-83
2023/04/08 11:54:26;;;;;;;10.10;9.00;;;;;;;12.01;64.85;99278.81;222222;1301;22556;-84
2023/04/08 11:59:28;;;;;;;9.60;8.70;;;;;;;11.93;64.73;99283.45;222188;1290;22593;-84
2023/04/08 12:04:31;;;;;;;9.40;7.90;;;;;;;11.87;63.81;99285.32;222439;1301;22644;-84
2023/04/08 12:09:33;;;;;;;11.60;9.90;;;;;;;11.75;63.23;99290.59;222152;1300;22549;-84
2023/04/08 12:14:35;;;;;;;14.70;11.70;;;;;;;11.68;63.38;99291.08;222033;1301;22590;-84
2023/04/08 12:19:39;;;;;;;13.10;11.30;;;;;;;11.78;63.80;99294.97;222042;1301;22554;-83
2023/04/08 12:24:41;;;;;;;14.10;12.70;;;;;;;11.89;63.88;99292.02;222151;1289;22564;-83
2023/04/08 12:29:45;;;;;;;17.80;14.40;;;;;;;11.90;63.72;99295.86;221886;1301;22604;-85
2023/04/08 12:34:47;;;;;;;15.70;13.50;;;;;;;11.76;63.70;99296.52;221861;1301;22552;-85
2023/04/08 12:39:49;;;;;;;18.20;14.50;;;;;;;11.49;63.52;99297.73;222061;1301;22582;-84
2023/04/08 12:44:51;;;;;;;14.30;12.70;;;;;;;11.17;63.22;99303.31;221992;1301;22686;-82
2023/04/08 12:49:54;;;;;;;13.70;12.20;;;;;;;10.86;63.08;99301.38;222123;1300;22577;-83
2023/04/08 12:54:56;;;;;;;13.70;12.10;;;;;;;10.62;63.28;99304.95;222486;1301;22559;-82
2023/04/08 12:59:58;;;;;;;13.00;11.60;;;;;;;10.39;63.81;99304.73;222114;1285;22553;-84
2023/04/08 13:05:01;;;;;;;14.50;13.00;;;;;;;10.19;64.21;99308.67;222176;1301;22552;-83
2023/04/08 13:10:05;;;;;;;15.10;13.10;;;;;;;10.09;64.93;99309.50;222049;1301;22570;-82
2023/04/08 13:15:08;;;;;;;17.50;14.70;;;;;;;10.05;65.68;99308.77;222147;1301;25194;-82
2023/04/08 13:20:11;;;;;;;15.70;14.00;;;;;;;10.00;65.90;99309.30;222232;1301;23038;-83
2023/04/08 13:25:13;;;;;;;18.50;14.70;;;;;;;9.97;66.48;99308.88;222234;1301;22568;-82
2023/04/08 13:30:15;;;;;;;18.60;14.30;;;;;;;9.99;66.72;99310.63;222278;1301;22583;-84
2023/04/08 13:35:18;;;;;;;20.80;15.70;;;;;;;9.92;67.44;99308.25;222221;1301;22578;-84
2023/04/08 13:40:20;;;;;;;15.30;13.30;;;;;;;9.82;67.90;99307.91;221866;1301;22553;-84
2023/04/08 13:45:24;;;;;;;15.60;12.40;;;;;;;9.74;67.89;99306.96;222219;1301;23965;-85
2023/04/08 13:50:26;;;;;;;17.00;13.00;;;;;;;9.64;68.14;99308.05;222200;1301;24296;-83
2023/04/08 13:55:28;;;;;;;17.70;14.10;;;;;;;9.50;68.44;99308.99;222022;1296;22563;-82
2023/04/08 14:00:31;;;;;;;17.30;13.30;;;;;;;9.41;68.71;99309.27;222192;1286;22625;-83
2023/04/08 14:05:33;;;;;;;16.90;13.50;;;;;;;9.36;69.40;99311.41;222190;1301;22608;-83
2023/04/08 14:10:37;;;;;;;17.70;14.90;;;;;;;9.34;69.64;99311.14;222291;1301;25513;-83
2023/04/08 14:15:40;;;;;;;22.60;16.00;;;;;;;9.37;69.69;99309.10;222442;1298;22503;-83
2023/04/08 14:20:43;;;;;;;25.10;18.70;;;;;;;9.33;69.43;99309.33;222168;1301;24226;-84
2023/04/08 14:25:46;;;;;;;25.20;18.80;;;;;;;9.29;69.53;99306.10;222165;1301;22594;-83
2023/04/08 14:30:49;;;;;;;21.90;16.10;;;;;;;9.25;69.90;99304.98;222273;1301;22773;-83
2023/04/08 14:35:52;;;;;;;22.00;17.40;;;;;;;9.26;70.47;99308.05;221997;1301;27568;-82
2023/04/08 14:40:55;;;;;;;27.00;19.70;;;;;;;9.28;70.63;99312.06;222212;1301;22547;-84
2023/04/08 14:45:57;;;;;;;26.00;20.50;;;;;;;9.27;70.81;99314.63;222200;1290;22549;-83
2023/04/08 14:50:59;;;;;;;29.60;22.20;;;;;;;9.17;70.68;99315.50;222423;1293;22557;-84
2023/04/08 14:56:01;;;;;;;33.90;22.60;;;;;;;9.04;70.88;99313.00;222236;1301;22549;-82
2023/04/08 15:01:03;;;;;;;28.30;21.20;;;;;;;9.00;71.10;99318.73;221980;1301;24875;-83
2023/04/08 15:06:06;;;;;;;24.60;18.30;;;;;;;9.04;71.22;99319.49;222242;1299;22558;-84
2023/04/08 15:11:09;;;;;;;28.60;21.20;;;;;;;9.06;71.23;99318.19;222224;1294;24275;-83
2023/04/08 15:16:11;;;;;;;31.40;21.70;;;;;;;9.09;71.49;99323.77;222016;1301;22567;-82
2023/04/08 15:21:15;;;;;;;32.70;21.20;;;;;;;9.08;71.43;99323.96;221893;1301;22623;-83
2023/04/08 15:26:17;;;;;;;31.50;22.80;;;;;;;9.06;71.52;99326.83;221929;1301;22590;-81
2023/04/08 15:31:20;;;;;;;32.50;23.70;;;;;;;9.08;71.82;99327.88;221803;1301;22557;-83
2023/04/08 15:36:22;;;;;;;26.40;19.70;;;;;;;9.10;72.00;99336.05;222093;1279;22549;-84
2023/04/08 15:41:25;;;;;;;24.40;19.40;;;;;;;9.03;71.74;99335.42;222101;1301;22582;-83
2023/04/08 15:46:27;;;;;;;24.70;18.50;;;;;;;8.91;71.85;99339.22;222228;1300;22637;-81
2023/04/08 15:51:29;;;;;;;27.40;20.10;;;;;;;8.78;72.14;99343.31;222460;1296;22553;-83
2023/04/08 15:56:32;;;;;;;30.10;21.00;;;;;;;8.72;72.58;99342.98;222256;1301;22585;-83
2023/04/08 16:01:35;;;;;;;28.90;20.80;;;;;;;8.70;72.68;99344.20;222253;1301;22541;-82
2023/04/08 16:06:37;;;;;;;27.50;20.40;;;;;;;8.71;72.96;99341.17;222255;1301;22603;-84
2023/04/08 16:11:40;;;;;;;28.50;20.80;;;;;;;8.68;73.11;99340.63;222142;1301;22586;-83
2023/04/08 16:16:42;;;;;;;30.50;22.50;;;;;;;8.65;73.14;99342.01;222184;1301;24383;-81
2023/04/08 16:21:45;;;;;;;36.40;23.80;;;;;;;8.63;73.15;99342.89;222149;1301;22572;-83
2023/04/08 16:26:47;;;;;;;36.40;23.60;;;;;;;8.58;73.30;99346.55;222244;1295;22555;-82
2023/04/08 16:31:49;;;;;;;61.00;44.40;;;;;;;8.53;73.78;99347.34;222300;1296;25337;-83
2023/04/08 16:36:55;;;;;;;40.00;26.80;;;;;;;8.49;73.80;99350.52;222279;1296;22576;-83
2023/04/08 16:41:59;;;;;;;36.00;24.80;;;;;;;8.46;74.01;99349.47;221944;1301;22586;-83
2023/04/08 16:47:01;;;;;;;34.80;24.40;;;;;;;8.39;74.44;99352.84;221958;1301;22552;-82
2023/04/08 16:52:04;;;;;;;37.70;26.00;;;;;;;8.31;74.22;99356.29;222079;1301;22553;-83
2023/04/08 16:57:07;;;;;;;34.90;24.40;;;;;;;8.24;74.49;99355.91;222225;1299;25287;-84
2023/04/08 17:02:11;;;;;;;44.20;29.50;;;;;;;8.19;74.71;99360.10;222082;1301;24150;-85
2023/04/08 17:07:14;;;;;;;35.50;26.20;;;;;;;8.15;74.83;99366.02;222353;1299;22697;-85
2023/04/08 17:12:17;;;;;;;45.20;30.60;;;;;;;8.09;75.11;99369.96;222244;1299;22555;-86
2023/04/08 17:17:19;;;;;;;45.50;30.60;;;;;;;8.05;75.40;99375.73;222079;1298;22553;-83
2023/04/08 17:22:21;;;;;;;44.80;30.20;;;;;;;8.04;75.50;99386.08;222151;1301;25298;-83
2023/04/08 17:27:23;;;;;;;52.20;33.10;;;;;;;8.00;75.75;99388.25;222228;1299;25433;-83
2023/04/08 17:32:26;;;;;;;50.80;32.40;;;;;;;7.99;75.86;99390.84;222238;1301;22554;-82
2023/04/08 17:37:30;;;;;;;47.10;32.00;;;;;;;7.98;75.85;99397.20;221909;1286;22610;-82
2023/04/08 17:42:32;;;;;;;50.50;32.80;;;;;;;7.95;75.98;99397.17;222141;1287;22562;-83
2023/04/08 17:47:34;;;;;;;49.40;33.60;;;;;;;7.92;75.93;99396.25;222155;1293;23827;-83
2023/04/08 17:52:37;;;;;;;48.60;30.60;;;;;;;7.88;75.78;99401.05;221899;1289;22572;-82
2023/04/08 17:57:39;;;;;;;54.60;35.30;;;;;;;7.83;76.38;99404.56;222184;1301;22630;-81
2023/04/08 18:02:41;;;;;;;53.00;32.00;;;;;;;7.78;75.95;99407.15;221982;1299;25540;-82
2023/04/08 18:07:44;;;;;;;43.70;29.00;;;;;;;7.74;76.16;99411.39;222171;1301;22546;-82
2023/04/08 18:12:46;;;;;;;45.10;31.10;;;;;;;7.71;76.22;99415.36;222380;1295;22562;-84
2023/04/08 18:17:50;;;;;;;46.50;31.40;;;;;;;7.66;76.04;99413.45;222108;1300;22557;-84
2023/04/08 18:22:52;;;;;;;48.40;33.70;;;;;;;7.63;76.37;99420.10;222204;1293;22563;-84
2023/04/08 18:27:54;;;;;;;44.80;30.40;;;;;;;7.60;76.27;99424.41;222456;1298;22601;-82
2023/04/08 18:32:56;;;;;;;50.90;32.80;;;;;;;7.57;76.48;99429.42;222215;1299;22641;-83
2023/04/08 18:37:58;;;;;;;44.80;31.30;;;;;;;7.53;76.59;99437.19;222211;1298;22608;-81
2023/04/08 18:43:03;;;;;;;52.90;32.60;;;;;;;7.50;76.54;99438.23;221977;1289;22574;-80
2023/04/08 18:48:08;;;;;;;52.40;33.70;;;;;;;7.48;76.64;99440.52;221904;1302;22573;-84
2023/04/08 18:53:11;;;;;;;51.10;30.10;;;;;;;7.44;76.78;99447.36;221910;1301;22549;-82
2023/04/08 18:58:13;;;;;;;44.60;29.40;;;;;;;7.41;77.12;99453.27;222066;1301;22549;-84
2023/04/08 19:03:15;;;;;;;40.30;27.10;;;;;;;7.38;77.32;99457.21;222120;1301;23411;-84
2023/04/08 19:08:18;;;;;;;43.10;30.00;;;;;;;7.37;77.04;99457.20;222160;1301;22614;-80
2023/04/08 19:13:22;;;;;;;38.10;26.80;;;;;;;7.34;77.31;99463.91;221986;1301;22572;-81
2023/04/08 19:18:24;;;;;;;48.60;30.30;;;;;;;7.32;77.55;99466.96;222437;1296;22581;-82
2023/04/08 19:23:27;;;;;;;39.20;27.10;;;;;;;7.29;77.77;99460.95;222132;1301;22598;-83
2023/04/08 19:28:31;;;;;;;42.70;27.60;;;;;;;7.26;77.30;99454.90;222229;1301;22760;-83
2023/04/08 19:33:33;;;;;;;43.80;28.80;;;;;;;7.24;77.68;99460.27;222077;1300;22570;-83
2023/04/08 19:38:35;;;;;;;49.60;31.10;;;;;;;7.21;77.54;99460.86;222134;1301;22588;-83
2023/04/08 19:43:37;;;;;;;52.40;33.30;;;;;;;7.18;77.92;99456.80;222156;1285;22573;-83
2023/04/08 19:48:39;;;;;;;50.80;33.80;;;;;;;7.15;78.34;99458.98;222201;1301;22557;-83
2023/04/08 19:53:41;;;;;;;55.80;35.00;;;;;;;7.13;78.09;99459.23;222401;1278;22570;-82
2023/04/08 19:58:43;;;;;;;53.70;34.20;;;;;;;7.08;78.17;99463.70;222215;1301;22594;-83
2023/04/08 20:03:48;;;;;;;51.50;33.50;;;;;;;7.04;78.17;99461.48;222149;1301;22546;-83
2023/04/08 20:08:51;;;;;;;55.90;35.40;;;;;;;6.98;78.26;99457.67;222130;1301;22641;-84
2023/04/08 20:13:55;;;;;;;52.20;33.10;;;;;;;6.95;78.38;99453.80;222155;1301;22604;-84
2023/04/08 20:18:57;;;;;;;51.80;33.00;;;;;;;6.92;78.70;99454.23;222250;1299;22552;-81
2023/04/08 20:23:59;;;;;;;53.40;33.50;;;;;;;6.90;78.61;99454.79;222172;1301;22614;-83
2023/04/08 20:29:01;;;;;;;49.60;32.40;;;;;;;6.88;78.87;99455.20;222212;1299;22575;-82
2023/04/08 20:34:04;;;;;;;47.00;31.40;;;;;;;6.86;79.19;99449.58;222164;1297;23802;-83
2023/04/08 20:39:09;;;;;;;51.10;33.10;;;;;;;6.83;78.86;99451.83;222123;1301;22549;-82
2023/04/08 20:44:11;;;;;;;47.20;31.30;;;;;;;6.78;79.14;99451.04;222259;1296;25451;-82
2023/04/08 20:49:17;;;;;;;57.00;36.80;;;;;;;6.76;79.14;99453.20;222201;1301;24415;-83
2023/04/08 20:54:20;;;;;;;73.00;44.40;;;;;;;6.72;79.35;99455.83;222191;1301;22576;-83
2023/04/08 20:59:22;;;;;;;53.70;36.10;;;;;;;6.69;79.36;99461.15;222166;1301;22574;-83
2023/04/08 21:04:24;;;;;;;54.20;35.90;;;;;;;6.66;79.26;99458.80;222197;1299;22566;-82
2023/04/08 21:09:27;;;;;;;49.30;34.10;;;;;;;6.66;79.68;99466.05;222144;1295;22554;-84
2023/04/08 21:14:36;;;;;;;51.20;32.80;;;;;;;6.66;79.73;99466.39;222230;1301;22756;-83
2023/04/08 21:19:38;;;;;;;50.70;33.20;;;;;;;6.65;80.02;99460.70;222410;1299;22555;-83
2023/04/08 21:24:41;;;;;;;59.60;38.40;;;;;;;6.65;79.79;99469.10;222114;1301;22552;-82
2023/04/08 21:29:44;;;;;;;55.50;36.70;;;;;;;6.65;80.12;99461.22;222235;1299;24271;-84
2023/04/08 21:34:55;;;;;;;55.20;36.20;;;;;;;6.66;80.13;99462.58;222156;1300;22549;-82
2023/04/08 21:39:57;;;;;;;55.40;36.70;;;;;;;6.68;80.39;99468.80;221900;1301;22555;-82
2023/04/08 21:45:00;;;;;;;62.20;39.30;;;;;;;6.70;80.49;99471.23;222275;1299;22490;-84
2023/04/08 21:50:06;;;;;;;82.50;50.10;;;;;;;6.71;80.61;99477.45;222170;1301;22577;-83
2023/04/08 21:55:29;;;;;;;87.10;53.20;;;;;;;6.69;80.45;99483.43;222176;1301;22579;-84
2023/04/08 22:00:31;;;;;;;80.00;49.20;;;;;;;6.67;80.54;99483.39;222027;1301;22546;-80
2023/04/08 22:05:34;;;;;;;83.40;47.80;;;;;;;6.63;80.70;99474.70;222143;1301;22560;-84
2023/04/08 22:10:36;;;;;;;70.40;45.20;;;;;;;6.58;81.00;99477.13;222152;1301;24381;-82
2023/04/08 22:15:39;;;;;;;61.30;39.60;;;;;;;6.51;81.09;99477.82;222149;1301;22511;-84
2023/04/08 22:20:41;;;;;;;57.90;37.20;;;;;;;6.45;80.97;99486.20;221808;1290;379270;-81
2023/04/08 22:25:49;;;;;;;53.60;35.30;;;;;;;6.42;81.20;99486.15;222447;1282;22575;-84
2023/04/08 22:30:53;;;;;;;42.90;30.90;;;;;;;6.38;81.39;99488.80;222200;1301;23194;-82
2023/04/08 22:35:56;;;;;;;53.40;35.60;;;;;;;6.38;81.71;99489.09;222194;1301;22552;-86
2023/04/08 22:40:59;;;;;;;58.80;38.50;;;;;;;6.32;81.65;99479.77;221946;1301;22559;-85
2023/04/08 22:46:01;;;;;;;61.50;39.50;;;;;;;6.23;81.94;99483.18;221594;1301;24285;-85
2023/04/08 22:51:04;;;;;;;53.20;34.50;;;;;;;6.17;82.46;99479.45;221871;1301;22568;-85
2023/04/08 22:56:06;;;;;;;45.40;29.80;;;;;;;6.12;82.52;99484.84;222159;1298;22672;-85
2023/04/08 23:01:17;;;;;;;40.00;27.70;;;;;;;6.06;82.22;99476.41;222127;1301;23842;-84
2023/04/08 23:06:19;;;;;;;38.80;26.40;;;;;;;5.97;82.22;99462.53;221993;1299;22493;-83
2023/04/08 23:11:41;;;;;;;44.00;29.50;;;;;;;5.88;82.39;99466.55;222269;1301;22549;-85
2023/04/08 23:16:44;;;;;;;41.50;28.10;;;;;;;5.82;82.63;99462.56;222185;1296;23811;-84
2023/04/08 23:21:46;;;;;;;37.10;26.40;;;;;;;5.76;82.76;99456.83;222210;1299;24258;-84
2023/04/08 23:26:48;;;;;;;37.60;26.00;;;;;;;5.72;82.93;99455.59;222215;1299;22546;-85
2023/04/08 23:31:53;;;;;;;38.50;26.60;;;;;;;5.67;82.97;99447.96;222418;1301;24278;-85
2023/04/08 23:36:55;;;;;;;41.00;27.90;;;;;;;5.63;83.03;99442.58;222375;1295;22562;-85
2023/04/08 23:41:57;;;;;;;43.60;30.90;;;;;;;5.60;83.04;99445.31;222186;1301;22631;-84
2023/04/08 23:47:00;;;;;;;44.30;30.00;;;;;;;5.59;83.22;99452.98;222220;1301;22552;-85
2023/04/08 23:52:05;;;;;;;37.00;26.80;;;;;;;5.58;83.42;99464.23;222182;1283;22554;-86
2023/04/08 23:57:07;;;;;;;46.30;31.40;;;;;;;5.59;83.73;99477.76;222161;1301;24262;-83
